Time;durP1;ratioP1;P1;durP2;ratioP2;P2;SDS_P1;SDS_P2;PMS_P1;PMS_P2;Temp;Humidity;BMP_temperature;BMP_pressure;BME280_temperature;BME280_humidity;BME280_pressure;Samples;Min_cycle;Max_cycle;Signal;HPM_P1;HPM_P2
2023/12/05 00:02:35;;;;;;;;;14.50;13.50;;;;;12.91;68.17;101506.53;146615;574;46020;-63
2023/12/05 00:05:33;;;;;;;;;13.25;11.25;;;;;12.92;68.09;101504.81;146610;597;46034;-63
2023/12/05 00:08:29;;;;;;;;;15.25;12.50;;;;;12.94;67.69;101506.72;146612;592;46010;-63
2023/12/05 00:11:27;;;;;;;;;14.75;12.25;;;;;12.92;67.93;101500.50;146612;578;46034;-63
2023/12/05 00:14:22;;;;;;;;;13.75;12.75;;;;;12.88;67.89;101510.69;146613;572;47021;-63
2023/12/05 00:17:14;;;;;;;;;16.00;14.50;;;;;12.83;67.90;101512.13;146609;588;47016;-63
2023/12/05 00:20:08;;;;;;;;;17.25;14.25;;;;;12.74;68.44;101504.75;146614;604;46020;-62
2023/12/05 00:23:20;;;;;;;;;17.75;16.25;;;;;12.68;68.44;101513.09;146607;586;46017;-63
2023/12/05 00:26:18;;;;;;;;;20.50;18.00;;;;;12.65;68.89;101515.53;146612;572;46010;-62
2023/12/05 00:29:10;;;;;;;;;21.00;16.00;;;;;12.61;68.99;101510.06;146612;584;46012;-62
2023/12/05 00:32:04;;;;;;;;;18.25;15.25;;;;;12.58;69.09;101516.00;146612;657;46014;-63
2023/12/05 00:35:05;;;;;;;;;16.25;15.75;;;;;12.58;69.29;101509.88;146610;569;46016;-63
2023/12/05 00:37:58;;;;;;;;;16.75;15.50;;;;;12.58;69.44;101502.97;146613;570;46011;-62
2023/12/05 00:40:56;;;;;;;;;15.75;14.00;;;;;12.61;69.53;101500.53;146610;563;46012;-63
2023/12/05 00:43:48;;;;;;;;;15.75;14.75;;;;;12.60;69.44;101503.97;146610;576;47010;-61
2023/12/05 00:46:41;;;;;;;;;15.25;14.75;;;;;12.62;69.72;101506.69;146609;618;47014;-62
2023/12/05 00:49:37;;;;;;;;;18.25;17.50;;;;;12.64;69.99;101499.81;146612;618;46010;-62
2023/12/05 00:52:29;;;;;;;;;20.00;17.75;;;;;12.67;70.03;101510.41;146611;620;46016;-61
2023/12/05 00:55:35;;;;;;;;;17.75;16.00;;;;;12.69;69.90;101512.28;146613;598;47010;-61
2023/12/05 00:58:31;;;;;;;;;19.00;17.00;;;;;12.73;69.99;101513.34;146608;626;47016;-61
2023/12/05 01:01:32;;;;;;;;;17.75;14.50;;;;;12.74;70.00;101502.16;146613;597;46020;-62
2023/12/05 01:04:38;;;;;;;;;17.25;17.25;;;;;9.11;69.13;100875.09;146609;602;47012;-63
2023/12/05 01:07:32;;;;;;;;;23.00;17.75;;;;;12.74;70.51;101511.63;146609;584;47011;-62
2023/12/05 01:10:33;;;;;;;;;23.00;17.75;;;;;12.74;70.73;101516.84;146610;569;46016;-62
2023/12/05 01:13:29;;;;;;;;;17.75;17.50;;;;;12.73;70.69;101517.66;146614;572;46026;-63
2023/12/05 01:16:21;;;;;;;;;23.25;20.25;;;;;12.70;70.64;101515.78;146605;581;47918;-63
2023/12/05 01:19:26;;;;;;;;;25.00;22.00;;;;;12.69;70.72;101504.47;146611;569;47010;-63
2023/12/05 01:22:24;;;;;;;;;20.00;16.75;;;;;12.71;70.91;101496.78;146612;681;46017;-63
2023/12/05 01:25:19;;;;;;;;;21.75;20.50;;;;;12.75;70.97;101498.72;146613;626;46020;-63
2023/12/05 01:28:15;;;;;;;;;17.50;17.00;;;;;12.80;71.01;101493.75;146610;580;46017;-63
2023/12/05 01:31:10;;;;;;;;;19.25;19.25;;;;;12.82;71.07;101479.12;146611;658;47010;-64
2023/12/05 01:34:04;;;;;;;;;23.75;18.75;;;;;12.81;70.78;101470.44;146612;584;46012;-63
2023/12/05 01:36:58;;;;;;;;;28.50;21.00;;;;;12.83;70.95;101467.87;146612;566;46020;-64
2023/12/05 01:40:00;;;;;;;;;23.25;21.00;;;;;12.85;70.71;101463.69;146610;628;47016;-63
2023/12/05 01:42:54;;;;;;;;;19.50;18.50;;;;;12.86;70.91;101465.47;146610;610;47010;-62
2023/12/05 01:45:50;;;;;;;;;20.75;18.75;;;;;12.85;70.68;101463.69;146609;563;47016;-60
2023/12/05 01:48:48;;;;;;;;;18.75;16.25;;;;;12.80;70.61;101450.41;146610;577;46010;-62
2023/12/05 01:51:43;;;;;;;;;19.25;17.00;;;;;12.85;70.99;101448.06;146611;650;47014;-62
2023/12/05 01:54:37;;;;;;;;;19.00;18.50;;;;;12.82;71.08;101447.91;146614;645;46020;-63
2023/12/05 01:57:35;;;;;;;;;17.50;15.75;;;;;12.77;71.00;101434.63;146609;581;47013;-63
2023/12/05 02:00:28;;;;;;;;;18.00;18.00;;;;;12.74;71.13;101431.88;146610;584;47010;-62
2023/12/05 02:03:39;;;;;;;;;23.25;21.00;;;;;12.73;71.20;101427.47;146610;578;47014;-62
2023/12/05 02:06:37;;;;;;;;;22.50;21.50;;;;;12.71;71.42;101418.72;146610;647;46021;-63
2023/12/05 02:09:33;;;;;;;;;24.25;20.00;;;;;12.66;71.58;101409.75;146611;616;46016;-63
2023/12/05 02:12:26;;;;;;;;;24.75;20.00;;;;;12.61;71.79;101395.59;146612;571;46029;-63
2023/12/05 02:15:23;;;;;;;;;28.00;22.25;;;;;12.56;71.96;101394.47;146608;575;46016;-63
2023/12/05 02:18:28;;;;;;;;;22.00;20.75;;;;;12.55;71.67;101410.88;146612;616;46020;-62
2023/12/05 02:21:37;;;;;;;;;22.25;22.00;;;;;12.56;71.02;101407.47;146609;580;47014;-65
2023/12/05 02:25:01;;;;;;;;;21.75;18.50;;;;;12.61;70.60;101404.28;146609;563;46010;-65
2023/12/05 02:27:58;;;;;;;;;17.50;12.50;;;;;12.65;71.37;101392.34;146605;593;47013;-64
2023/12/05 02:30:50;;;;;;;;;16.50;12.75;;;;;12.68;71.09;101395.12;146605;606;46020;-63
2023/12/05 02:33:53;;;;;;;;;20.50;17.25;;;;;12.71;70.74;101397.88;146601;594;46016;-64
2023/12/05 02:37:26;;;;;;;;;16.00;15.50;;;;;12.76;69.82;101391.19;146625;649;45020;-65
2023/12/05 02:40:42;;;;;;;;;15.75;12.50;;;;;12.76;70.29;101388.59;146624;578;45032;-65
2023/12/05 02:44:21;;;;;;;;;20.00;15.00;;;;;9.16;69.35;100746.03;146623;598;46916;-66
2023/12/05 02:47:15;;;;;;;;;20.50;18.75;;;;;12.76;70.26;101378.19;146627;609;45915;-63
2023/12/05 02:50:22;;;;;;;;;24.50;18.75;;;;;12.71;69.90;101372.75;146627;577;45021;-63
2023/12/05 02:53:18;;;;;;;;;21.00;18.00;;;;;12.65;71.07;101377.62;146626;614;46012;-63
2023/12/05 02:56:25;;;;;;;;;21.00;17.25;;;;;12.55;71.47;101367.53;146627;613;46010;-63
2023/12/05 02:59:29;;;;;;;;;21.00;17.25;;;;;12.48;71.45;101374.12;146625;638;46016;-63
2023/12/05 03:02:24;;;;;;;;;19.75;19.00;;;;;12.43;71.93;101377.31;146623;563;48010;-63
2023/12/05 03:05:22;;;;;;;;;16.25;16.00;;;;;12.40;71.87;101378.03;146626;593;47010;-64
2023/12/05 03:08:18;;;;;;;;;13.25;12.25;;;;;12.40;71.86;101372.81;146627;733;45020;-63
2023/12/05 03:11:25;;;;;;;;;22.00;19.25;;;;;12.41;71.97;101377.22;146624;576;45016;-63
2023/12/05 03:14:20;;;;;;;;;24.00;19.75;;;;;12.44;71.88;101374.78;146624;565;46010;-63
2023/12/05 03:17:20;;;;;;;;;16.75;15.50;;;;;12.42;72.18;101367.69;146627;572;45012;-63
2023/12/05 03:20:30;;;;;;;;;27.25;22.00;;;;;12.50;71.06;101381.12;146627;565;46011;-63
2023/12/05 03:23:29;;;;;;;;;18.50;15.50;;;;;12.47;72.17;101377.53;146627;569;46012;-65
2023/12/05 03:26:43;;;;;;;;;20.00;18.25;;;;;8.80;70.73;100740.50;146625;618;46010;-62
2023/12/05 03:29:35;;;;;;;;;15.50;14.50;;;;;12.38;72.01;101376.16;146622;608;46016;-64
2023/12/05 03:32:30;;;;;;;;;24.75;19.00;;;;;12.34;72.43;101380.31;146623;591;45020;-64
2023/12/05 03:35:22;;;;;;;;;19.50;19.50;;;;;12.30;72.55;101377.44;146609;569;48012;-63
2023/12/05 03:38:16;;;;;;;;;17.75;16.00;;;;;12.27;72.89;101377.25;146605;566;46020;-63
2023/12/05 03:41:16;;;;;;;;;22.00;16.25;;;;;12.25;73.46;101372.87;146605;608;46016;-64
2023/12/05 03:44:13;;;;;;;;;19.25;18.25;;;;;12.24;73.26;101378.91;146608;585;46010;-64
2023/12/05 03:47:26;;;;;;;;;15.75;13.50;;;;;12.25;72.57;101385.87;146605;594;46016;-64
2023/12/05 03:50:22;;;;;;;;;19.00;17.00;;;;;12.28;73.58;101379.97;146603;564;47010;-65
2023/12/05 03:53:28;;;;;;;;;18.75;16.00;;;;;12.34;73.09;101371.59;146604;590;46010;-65
2023/12/05 03:56:31;;;;;;;;;19.25;15.75;;;;;12.39;73.39;101375.34;146606;581;47010;-65
2023/12/05 03:59:26;;;;;;;;;18.25;16.50;;;;;12.40;73.34;101372.81;146604;569;45017;-64
2023/12/05 04:02:18;;;;;;;;;20.00;13.75;;;;;12.40;73.27;101362.44;146604;563;47010;-65
2023/12/05 04:05:27;;;;;;;;;16.75;15.00;;;;;12.43;73.09;101360.00;146604;597;47013;-65
2023/12/05 04:08:25;;;;;;;;;13.50;13.50;;;;;12.48;72.71;101358.50;146608;565;46010;-63
2023/12/05 04:11:17;;;;;;;;;21.00;17.75;;;;;12.52;72.93;101356.97;146603;570;47016;-64
2023/12/05 04:14:16;;;;;;;;;15.25;13.75;;;;;12.58;73.17;101353.81;146606;569;47010;-65
2023/12/05 04:17:10;;;;;;;;;21.25;16.00;;;;;12.64;73.98;101355.00;146603;563;47012;-65
2023/12/05 04:20:04;;;;;;;;;20.50;17.50;;;;;12.66;73.72;101363.81;146602;699;46917;-65
2023/12/05 04:22:59;;;;;;;;;16.00;15.75;;;;;12.66;73.24;101358.59;146601;661;47917;-64
2023/12/05 04:25:51;;;;;;;;;15.75;15.75;;;;;12.67;73.43;101357.78;146609;621;46011;-64
2023/12/05 04:28:53;;;;;;;;;14.50;13.75;;;;;12.68;72.78;101364.78;146602;569;47014;-64
2023/12/05 04:31:45;;;;;;;;;16.50;14.50;;;;;12.68;72.92;101363.91;146605;613;46029;-64
2023/12/05 04:34:47;;;;;;;;;20.00;15.00;;;;;12.70;73.20;101372.66;146604;584;46017;-64
2023/12/05 04:37:40;;;;;;;;;18.00;16.50;;;;;12.68;73.49;101371.72;146605;595;46010;-65
2023/12/05 04:40:35;;;;;;;;;17.75;15.25;;;;;12.66;72.63;101369.00;146604;564;46015;-65
2023/12/05 04:43:30;;;;;;;;;20.00;16.25;;;;;12.70;72.48;101377.88;146605;573;47020;-62
2023/12/05 04:46:29;;;;;;;;;20.25;18.50;;;;;12.73;72.05;101372.81;146603;616;47012;-64
2023/12/05 04:49:21;;;;;;;;;17.00;14.00;;;;;12.78;71.72;101373.97;146606;570;46021;-63
2023/12/05 04:52:24;;;;;;;;;19.50;16.75;;;;;12.82;71.65;101370.72;146603;569;46036;-64
2023/12/05 04:55:17;;;;;;;;;16.75;16.25;;;;;12.85;71.47;101364.78;146608;625;46020;-64
2023/12/05 04:58:29;;;;;;;;;19.75;18.00;;;;;9.23;70.11;100723.16;146597;619;49918;-64
2023/12/05 05:01:29;;;;;;;;;16.25;15.00;;;;;12.90;70.76;101358.09;146608;604;46010;-64
2023/12/05 05:04:23;;;;;;;;;17.25;15.00;;;;;12.86;70.99;101353.53;146603;581;47013;-64
2023/12/05 05:07:30;;;;;;;;;18.50;18.25;;;;;12.83;71.06;101358.59;146605;584;46010;-64
2023/12/05 05:10:24;;;;;;;;;20.25;17.00;;;;;12.78;71.24;101342.75;146602;600;47012;-65
2023/12/05 05:13:16;;;;;;;;;20.25;16.75;;;;;12.76;71.37;101341.75;146605;669;46021;-64
2023/12/05 05:16:14;;;;;;;;;19.75;18.00;;;;;12.75;71.41;101344.28;146601;569;47016;-63
2023/12/05 05:19:12;;;;;;;;;20.25;16.50;;;;;12.73;71.60;101344.19;146602;564;47010;-64
2023/12/05 05:22:15;;;;;;;;;21.75;19.00;;;;;12.73;71.62;101340.72;146601;633;46025;-65
2023/12/05 05:25:08;;;;;;;;;21.75;18.25;;;;;12.73;72.25;101344.19;146605;570;46010;-64
2023/12/05 05:28:10;;;;;;;;;20.25;16.50;;;;;12.71;72.48;101344.12;146603;588;47012;-64
2023/12/05 05:31:05;;;;;;;;;20.25;16.00;;;;;12.71;72.63;101341.53;146607;585;46020;-63
2023/12/05 05:34:06;;;;;;;;;18.50;17.75;;;;;12.68;72.37;101345.69;146602;569;46917;-63
2023/12/05 05:37:00;;;;;;;;;22.50;20.00;;;;;12.66;72.83;101348.19;146601;563;46023;-62
2023/12/05 05:40:26;;;;;;;;;20.75;18.00;;;;;12.66;71.99;101349.91;146605;715;46017;-62
2023/12/05 05:43:30;;;;;;;;;20.25;16.75;;;;;12.66;72.42;101358.59;146605;570;46020;-62
2023/12/05 05:46:31;;;;;;;;;18.00;17.75;;;;;12.69;72.40;101363.09;146603;592;46016;-63
2023/12/05 05:49:23;;;;;;;;;17.00;17.00;;;;;12.74;71.96;101352.91;146606;586;46021;-63
2023/12/05 05:52:14;;;;;;;;;18.50;15.75;;;;;12.78;72.31;101347.06;146603;610;46016;-68
2023/12/05 05:55:05;;;;;;;;;24.75;18.75;;;;;12.82;71.95;101349.88;146607;613;46015;-66
2023/12/05 05:58:00;;;;;;;;;16.75;15.75;;;;;12.87;72.00;101351.03;146604;580;47012;-65
2023/12/05 06:00:54;;;;;;;;;20.50;18.75;;;;;12.91;71.83;101355.56;146605;611;46010;-64
2023/12/05 06:03:46;;;;;;;;;23.75;18.00;;;;;12.94;71.89;101357.44;146603;684;46035;-65
2023/12/05 06:06:38;;;;;;;;;24.00;20.25;;;;;12.95;72.05;101354.00;146605;638;46010;-64
2023/12/05 06:09:35;;;;;;;;;21.25;17.50;;;;;12.97;72.04;101357.59;146604;588;47012;-64
2023/12/05 06:12:32;;;;;;;;;20.50;19.25;;;;;13.01;71.79;101356.94;146604;619;47010;-64
2023/12/05 06:15:26;;;;;;;;;18.00;17.00;;;;;13.02;72.21;101347.41;146603;588;48012;-64
2023/12/05 06:18:17;;;;;;;;;21.00;18.00;;;;;13.04;72.34;101356.19;146606;573;46580;-64
2023/12/05 06:21:14;;;;;;;;;47.75;38.25;;;;;13.08;72.17;101359.06;146606;572;47012;-65
2023/12/05 06:24:05;;;;;;;;;22.00;20.00;;;;;13.12;72.27;101360.09;146606;576;46010;-64
2023/12/05 06:26:59;;;;;;;;;28.75;24.25;;;;;13.16;72.41;101357.72;146599;592;48012;-65
2023/12/05 06:29:53;;;;;;;;;28.75;24.50;;;;;13.20;72.34;101361.38;146606;601;46010;-64
2023/12/05 06:32:45;;;;;;;;;26.50;23.75;;;;;13.23;71.71;101358.03;146597;591;47025;-64
2023/12/05 06:35:36;;;;;;;;;29.00;22.50;;;;;13.23;71.26;101353.72;146604;607;46020;-64
2023/12/05 06:38:27;;;;;;;;;21.50;17.75;;;;;13.25;71.27;101341.72;146604;565;46012;-64
2023/12/05 06:41:19;;;;;;;;;20.75;17.50;;;;;13.29;71.28;101340.16;146609;648;46010;-65
2023/12/05 06:44:12;;;;;;;;;29.00;24.50;;;;;13.27;71.11;101329.66;146600;598;47012;-64
2023/12/05 06:47:10;;;;;;;;;22.50;21.25;;;;;13.27;71.29;101327.06;146604;587;47011;-64
2023/12/05 06:50:10;;;;;;;;;32.25;30.00;;;;;13.28;71.80;101320.12;146604;584;46016;-64
2023/12/05 06:53:04;;;;;;;;;24.25;20.00;;;;;13.30;71.87;101319.41;146605;574;47014;-64
2023/12/05 06:56:02;;;;;;;;;19.50;19.00;;;;;13.34;71.74;101310.91;146603;575;47014;-64
2023/12/05 06:59:03;;;;;;;;;22.50;22.50;;;;;13.42;71.70;101313.88;146605;611;46020;-65
2023/12/05 07:01:58;;;;;;;;;22.75;18.75;;;;;13.53;72.21;101314.41;146604;576;46014;-64
2023/12/05 07:04:52;;;;;;;;;22.75;21.25;;;;;13.60;72.19;101309.56;146607;617;46020;-63
2023/12/05 07:07:44;;;;;;;;;23.75;22.25;;;;;13.70;71.52;101313.50;146601;609;47016;-66
2023/12/05 07:10:37;;;;;;;;;20.50;19.75;;;;;13.75;71.39;101309.41;146606;654;46011;-64
2023/12/05 07:13:28;;;;;;;;;26.75;22.00;;;;;13.92;71.27;101318.00;146603;593;46016;-64
2023/12/05 07:16:20;;;;;;;;;26.25;21.75;;;;;14.02;70.82;101325.47;146604;595;46032;-64
2023/12/05 07:19:12;;;;;;;;;19.50;18.25;;;;;14.14;70.64;101325.13;146603;601;46016;-64
2023/12/05 07:22:12;;;;;;;;;27.25;25.25;;;;;14.25;69.94;101321.31;146604;670;47020;-64
2023/12/05 07:25:10;;;;;;;;;18.75;18.75;;;;;14.37;70.64;101328.81;146604;564;46014;-64
2023/12/05 07:28:01;;;;;;;;;29.50;26.75;;;;;14.49;68.79;101323.25;146603;590;47010;-64
2023/12/05 07:30:52;;;;;;;;;28.75;25.50;;;;;14.51;68.28;101326.84;146600;569;47016;-64
2023/12/05 07:33:44;;;;;;;;;27.50;25.00;;;;;14.53;68.57;101323.47;146604;565;47032;-64
2023/12/05 07:36:35;;;;;;;;;32.00;25.75;;;;;14.58;68.65;101328.00;146601;634;46016;-65
2023/12/05 07:39:26;;;;;;;;;26.75;22.00;;;;;14.64;68.67;101336.09;146607;597;46010;-64
2023/12/05 07:42:18;;;;;;;;;19.75;19.00;;;;;14.69;68.26;101338.09;146603;612;46016;-64
2023/12/05 07:45:14;;;;;;;;;21.00;19.00;;;;;14.72;68.35;101327.78;146606;601;46020;-64
2023/12/05 07:48:10;;;;;;;;;30.00;24.50;;;;;14.75;67.62;101317.50;146603;631;47016;-64
2023/12/05 07:51:02;;;;;;;;;25.25;23.50;;;;;14.80;67.13;101315.09;146606;624;46020;-64
2023/12/05 07:53:54;;;;;;;;;24.50;22.75;;;;;14.81;67.29;101300.31;146604;605;46013;-64
2023/12/05 07:56:46;;;;;;;;;21.75;19.50;;;;;14.81;67.76;101306.44;146606;580;46021;-64
2023/12/05 07:59:38;;;;;;;;;25.25;23.50;;;;;14.86;67.74;101304.00;146602;614;47012;-65
2023/12/05 08:02:29;;;;;;;;;20.50;19.50;;;;;14.94;68.29;101300.91;146604;613;46021;-64
2023/12/05 08:05:21;;;;;;;;;33.75;29.25;;;;;15.07;68.40;101306.66;146602;588;46016;-64
2023/12/05 08:08:18;;;;;;;;;28.25;24.00;;;;;15.18;67.62;101305.38;146606;564;47010;-65
2023/12/05 08:11:11;;;;;;;;;29.25;24.75;;;;;15.22;66.98;101312.50;146602;613;46918;-63
2023/12/05 08:14:03;;;;;;;;;22.25;21.50;;;;;15.20;66.77;101307.25;146607;580;46010;-64
2023/12/05 08:16:55;;;;;;;;;29.25;25.00;;;;;15.13;67.33;101309.50;146604;577;46013;-64
2023/12/05 08:19:46;;;;;;;;;28.50;23.75;;;;;15.02;67.40;101298.63;146606;592;47010;-64
2023/12/05 08:22:40;;;;;;;;;31.75;29.50;;;;;14.95;67.52;101304.41;146602;566;46917;-64
2023/12/05 08:25:35;;;;;;;;;31.50;27.50;;;;;14.93;68.19;101304.34;146607;648;46010;-64
2023/12/05 08:28:26;;;;;;;;;17.25;16.00;;;;;14.95;67.67;101288.72;146599;700;47016;-64
2023/12/05 08:31:18;;;;;;;;;34.50;27.50;;;;;14.98;68.00;101296.69;146607;639;46021;-66
2023/12/05 08:34:09;;;;;;;;;33.75;28.50;;;;;14.99;67.21;101288.06;146604;570;46917;-65
2023/12/05 08:37:01;;;;;;;;;36.25;31.50;;;;;14.97;67.51;101287.97;146607;660;47010;-64
2023/12/05 08:39:52;;;;;;;;;31.50;26.00;;;;;14.98;67.77;101281.94;146599;599;46017;-64
2023/12/05 08:42:47;;;;;;;;;27.75;25.50;;;;;14.99;67.51;101269.78;146606;580;47014;-66
2023/12/05 08:45:45;;;;;;;;;30.25;27.75;;;;;15.00;67.75;101280.25;146603;615;46016;-65
2023/12/05 08:48:36;;;;;;;;;38.50;32.25;;;;;15.02;67.37;101273.41;146605;632;46020;-64
2023/12/05 08:51:31;;;;;;;;;30.50;27.00;;;;;15.07;68.04;101275.31;146602;646;46016;-64
2023/12/05 08:54:22;;;;;;;;;31.00;28.75;;;;;15.15;67.98;101266.97;146607;598;46021;-65
2023/12/05 08:57:14;;;;;;;;;32.25;28.50;;;;;15.31;68.53;101255.41;146602;628;46016;-64
2023/12/05 09:00:10;;;;;;;;;34.00;28.25;;;;;15.49;67.74;101255.25;146602;644;47015;-64
2023/12/05 09:03:01;;;;;;;;;32.75;26.75;;;;;15.68;66.93;101256.91;146604;586;47012;-64
2023/12/05 09:05:55;;;;;;;;;33.75;29.25;;;;;15.74;66.78;101257.16;146606;619;46010;-65
2023/12/05 09:08:47;;;;;;;;;31.75;27.50;;;;;15.72;66.54;101247.47;146601;583;47932;-66
2023/12/05 09:11:41;;;;;;;;;28.00;25.25;;;;;15.62;67.02;101254.03;146606;569;46010;-64
2023/12/05 09:14:32;;;;;;;;;30.75;24.75;;;;;15.51;66.59;101250.09;146604;570;46917;-64
2023/12/05 09:17:28;;;;;;;;;31.50;24.25;;;;;15.40;66.98;101242.72;146605;571;46020;-64
2023/12/05 09:20:20;;;;;;;;;29.00;27.00;;;;;15.31;67.05;101238.84;146602;563;46016;-63
2023/12/05 09:23:12;;;;;;;;;34.50;29.75;;;;;15.24;67.50;101222.03;146608;635;46011;-65
2023/12/05 09:26:03;;;;;;;;;29.25;25.50;;;;;15.22;67.71;101208.91;146602;571;46917;-65
2023/12/05 09:28:55;;;;;;;;;31.50;27.25;;;;;15.25;67.89;101211.62;146602;621;47015;-65
2023/12/05 09:31:47;;;;;;;;;29.00;25.75;;;;;15.33;68.06;101208.47;146602;586;46016;-64
2023/12/05 09:34:40;;;;;;;;;30.75;27.75;;;;;15.41;67.35;101207.91;146604;613;47010;-65
2023/12/05 09:37:31;;;;;;;;;33.50;29.00;;;;;15.47;67.11;101196.81;146603;625;46017;-64
2023/12/05 09:40:24;;;;;;;;;33.75;29.75;;;;;15.54;66.76;101203.16;146605;602;46020;-65
2023/12/05 09:43:17;;;;;;;;;25.00;22.50;;;;;15.60;67.39;101187.72;146603;571;46014;-64
2023/12/05 09:46:29;;;;;;;;;23.50;20.75;;;;;12.30;66.24;100592.19;146603;583;46033;-65
2023/12/05 09:49:30;;;;;;;;;25.00;24.00;;;;;15.90;66.59;101181.06;146602;569;46016;-64
2023/12/05 09:52:23;;;;;;;;;25.75;22.00;;;;;16.08;66.22;101170.38;146603;594;46021;-64
2023/12/05 09:55:17;;;;;;;;;21.00;18.50;;;;;16.31;65.45;101175.53;146603;593;46014;-64
2023/12/05 09:58:10;;;;;;;;;28.00;21.50;;;;;16.48;65.12;101177.03;146606;580;46010;-64
2023/12/05 10:01:05;;;;;;;;;27.00;23.75;;;;;16.65;65.42;101166.22;146603;570;47041;-64
2023/12/05 10:04:05;;;;;;;;;19.50;18.25;;;;;16.87;64.49;101158.25;146607;620;46014;-64
2023/12/05 10:06:58;;;;;;;;;27.50;22.25;;;;;17.04;63.84;101151.84;146602;571;47015;-64
2023/12/05 10:09:51;;;;;;;;;29.50;25.50;;;;;17.16;63.20;101145.19;146603;631;48010;-64
2023/12/05 10:12:45;;;;;;;;;28.25;23.25;;;;;17.25;62.72;101146.38;146605;575;46012;-64
2023/12/05 10:15:39;;;;;;;;;16.50;15.25;;;;;17.30;61.56;101143.91;146604;603;46011;-65
2023/12/05 10:18:33;;;;;;;;;17.75;16.75;;;;;17.30;62.57;101138.66;146602;671;47012;-65
2023/12/05 10:21:28;;;;;;;;;18.00;18.00;;;;;17.23;62.24;101141.94;146606;638;46021;-65
2023/12/05 10:24:20;;;;;;;;;19.75;16.50;;;;;17.08;62.42;101142.34;146604;595;46016;-64
2023/12/05 10:27:11;;;;;;;;;19.00;18.00;;;;;16.95;63.16;101140.19;146602;603;46036;-64
2023/12/05 10:30:03;;;;;;;;;17.25;16.25;;;;;16.82;63.70;101138.87;146603;729;46017;-64
2023/12/05 10:32:57;;;;;;;;;19.75;16.00;;;;;16.69;64.20;101134.06;146604;597;46020;-66
2023/12/05 10:35:50;;;;;;;;;19.50;17.25;;;;;16.55;64.39;101133.62;146605;587;46016;-64
2023/12/05 10:38:41;;;;;;;;;20.00;17.75;;;;;16.41;65.16;101125.28;146606;565;46010;-64
2023/12/05 10:41:33;;;;;;;;;17.75;17.00;;;;;16.29;65.64;101128.41;146597;616;46016;-64
2023/12/05 10:44:28;;;;;;;;;21.50;17.00;;;;;16.30;66.22;101134.50;146603;629;47014;-64
2023/12/05 10:47:23;;;;;;;;;19.00;16.25;;;;;16.41;66.69;101125.28;146603;608;46026;-64
2023/12/05 10:50:16;;;;;;;;;20.25;17.25;;;;;16.56;66.37;101128.41;146607;602;46020;-64
2023/12/05 10:53:13;;;;;;;;;17.25;16.25;;;;;16.70;65.18;101115.78;146603;603;47017;-64
2023/12/05 10:56:23;;;;;;;;;18.50;17.75;;;;;16.74;65.07;101122.91;146604;656;46010;-64
2023/12/05 10:59:15;;;;;;;;;18.00;16.50;;;;;16.75;64.91;101116.84;146603;564;46016;-64
2023/12/05 11:02:19;;;;;;;;;15.50;14.75;;;;;16.71;63.90;101114.94;146607;599;46010;-64
2023/12/05 11:05:14;;;;;;;;;20.25;17.25;;;;;16.66;64.39;101113.88;146605;670;47015;-64
2023/12/05 11:08:24;;;;;;;;;22.25;20.75;;;;;16.66;64.84;101107.78;146604;564;47010;-64
2023/12/05 11:11:18;;;;;;;;;21.50;18.00;;;;;16.63;64.93;101103.31;146604;570;46012;-64
2023/12/05 11:14:15;;;;;;;;;14.50;14.00;;;;;16.59;65.33;101104.94;146604;587;46020;-64
2023/12/05 11:17:19;;;;;;;;;21.50;15.25;;;;;16.53;65.02;101102.13;146602;600;46014;-66
2023/12/05 11:20:38;;;;;;;;;18.25;16.75;;;;;16.46;65.37;101096.66;146604;577;46020;-64
2023/12/05 11:24:14;;;;;;;;;15.25;13.75;;;;;16.44;65.42;101090.47;146604;609;46016;-63
2023/12/05 11:27:46;;;;;;;;;20.00;17.50;;;;;16.44;65.45;101078.28;146604;660;46020;-65
2023/12/05 11:31:16;;;;;;;;;22.00;19.25;;;;;12.81;65.82;100442.53;146605;662;46014;-64
2023/12/05 11:34:34;;;;;;;;;22.50;20.75;;;;;16.62;65.66;101076.25;146608;580;46010;-64
2023/12/05 11:38:08;;;;;;;;;22.00;20.00;;;;;14.32;65.55;100626.00;146606;593;46013;-65
2023/12/05 11:41:23;;;;;;;;;20.00;17.00;;;;;17.02;64.87;101067.06;146604;571;47010;-64
2023/12/05 11:44:22;;;;;;;;;20.75;19.00;;;;;17.26;64.97;101055.56;146603;578;47014;-64
2023/12/05 11:47:31;;;;;;;;;24.75;18.75;;;;;17.59;63.84;101052.09;146605;612;46020;-64
2023/12/05 11:50:27;;;;;;;;;24.50;19.75;;;;;17.83;62.75;101047.56;146603;587;46016;-64
2023/12/05 11:53:21;;;;;;;;;17.25;14.25;;;;;17.92;61.85;101042.56;146604;679;47010;-65
2023/12/05 11:56:22;;;;;;;;;17.00;15.25;;;;;17.88;61.68;101034.56;146599;587;47010;-64
2023/12/05 11:59:31;;;;;;;;;19.75;15.50;;;;;17.83;61.43;101031.84;146604;569;46020;-64
2023/12/05 12:02:48;;;;;;;;;19.50;15.75;;;;;17.79;62.40;101029.97;146602;599;46016;-65
2023/12/05 12:05:44;;;;;;;;;16.50;16.00;;;;;17.98;61.93;101032.22;146606;578;47010;-64
2023/12/05 12:08:40;;;;;;;;;11.75;11.75;;;;;18.28;61.53;101020.72;146600;563;48014;-64
2023/12/05 12:11:31;;;;;;;;;13.00;12.00;;;;;18.65;61.65;101008.47;146604;575;46020;-63
2023/12/05 12:14:25;;;;;;;;;9.00;8.00;;;;;18.93;58.69;101007.38;146607;630;46016;-65
2023/12/05 12:17:25;;;;;;;;;11.00;8.00;;;;;18.91;59.05;101009.97;146606;579;47010;-64
2023/12/05 12:20:21;;;;;;;;;11.75;9.50;;;;;18.77;58.17;101008.78;146607;658;46017;-63
2023/12/05 12:23:15;;;;;;;;;10.33;8.00;;;;;18.62;59.65;101003.16;146606;605;46020;-64
2023/12/05 12:26:14;;;;;;;;;9.33;8.00;;;;;18.46;60.35;100994.91;146607;584;47012;-63
2023/12/05 12:29:12;;;;;;;;;10.00;9.67;;;;;18.31;60.28;100994.53;146606;597;47010;-63
2023/12/05 12:32:18;;;;;;;;;11.33;9.33;;;;;18.09;61.00;100995.75;146606;620;46016;-63
2023/12/05 12:35:14;;;;;;;;;12.33;11.67;;;;;17.87;61.55;100985.56;146606;575;46011;-63
2023/12/05 12:38:09;;;;;;;;;9.00;7.00;;;;;17.65;60.58;100986.72;146603;607;46917;-64
2023/12/05 12:41:04;;;;;;;;;4.00;3.00;;;;;17.40;61.34;100983.44;146606;579;46020;-64
2023/12/05 12:44:01;;;;;;;;;6.33;6.00;;;;;17.20;61.74;100980.25;146603;586;47012;-63
2023/12/05 12:46:54;;;;;;;;;3.33;2.00;;;;;16.99;62.17;100977.91;146606;673;47010;-64
2023/12/05 12:49:47;;;;;;;;;4.67;4.00;;;;;16.82;62.50;100982.66;146603;610;47016;-64
2023/12/05 12:52:41;;;;;;;;;6.00;6.00;;;;;13.65;62.93;100446.44;146607;563;46020;-64
2023/12/05 12:55:36;;;;;;;;;7.00;6.33;;;;;16.74;63.85;100976.25;146602;580;46016;-64
2023/12/05 12:58:49;;;;;;;;;4.00;4.00;;;;;16.84;63.06;100975.72;146605;604;46021;-66
2023/12/05 13:01:44;;;;;;;;;4.67;4.67;;;;;16.77;63.88;100960.69;146604;563;46035;-66
2023/12/05 13:04:37;;;;;;;;;5.00;4.00;;;;;16.78;64.33;100975.53;146609;593;47020;-65
2023/12/05 13:07:31;;;;;;;;;1.67;1.00;;;;;16.81;63.47;100975.63;146604;585;46016;-65
2023/12/05 13:10:24;;;;;;;;;5.00;5.00;;;;;16.79;63.65;100958.09;146606;648;47010;-66
2023/12/05 13:13:17;;;;;;;;;7.00;5.00;;;;;16.73;63.76;100966.63;146605;620;46918;-65
2023/12/05 13:16:13;;;;;;;;;7.33;5.33;;;;;16.71;63.81;100972.66;146606;596;46020;-67
2023/12/05 13:19:04;;;;;;;;;3.67;3.33;;;;;16.68;63.29;100964.72;146606;567;46013;-66
2023/12/05 13:21:58;;;;;;;;;9.00;6.33;;;;;16.59;63.96;100971.44;146607;577;46020;-65
2023/12/05 13:24:51;;;;;;;;;9.00;6.33;;;;;16.52;64.46;100963.38;146602;643;47016;-65
2023/12/05 13:27:54;;;;;;;;;7.33;6.00;;;;;16.41;64.35;100957.78;146607;566;46021;-66
2023/12/05 13:30:53;;;;;;;;;8.33;7.67;;;;;16.24;65.42;100959.00;146603;627;46016;-65